Time,TemperatureF,DewpointF,PressureIn,WindDirection,WindDirectionDegrees,WindSpeedMPH,WindSpeedGustMPH,Humidity,HourlyPrecipIn,Conditions,Clouds,dailyrainin,SolarRadiationWatts/m^2,SoftwareType,DateUTC
2013-06-20 00:01:00,35.0,33.0,-100.00,WSW,246,1.0,5.0,93,0.00,,,0.16,0.000000,,2013-06-20 06:01:00,
2013-06-20 00:34:00,34.0,30.0,-100.00,East,91,1.0,10.0,85,0.00,,,0.16,0.000000,,2013-06-20 06:34:00,
2013-06-20 00:43:00,34.0,30.0,-100.00,East,91,1.0,10.0,85,0.00,,,0.16,0.000000,,2013-06-20 06:43:00,
2013-06-20 00:53:00,34.0,30.0,-100.00,East,91,1.0,10.0,85,0.00,,,0.16,0.000000,,2013-06-20 06:53:00,
2013-06-20 01:01:00,34.0,30.0,-100.00,East,91,1.0,10.0,85,0.00,,,0.16,0.000000,,2013-06-20 07:01:00,
2013-06-20 01:23:00,35.0,32.0,-100.00,SSE,155,1.0,7.0,87,0.00,,,0.16,0.000000,,2013-06-20 07:23:00,
2013-06-20 01:34:00,35.0,32.0,-100.00,SSE,155,1.0,7.0,87,0.00,,,0.16,0.000000,,2013-06-20 07:34:00,
2013-06-20 01:44:00,35.0,32.0,-100.00,SSE,155,1.0,7.0,87,0.00,,,0.16,0.000000,,2013-06-20 07:44:00,
2013-06-20 01:52:00,35.0,32.0,-100.00,SSE,155,1.0,7.0,87,0.00,,,0.16,0.000000,,2013-06-20 07:52:00,
2013-06-20 02:02:00,35.0,32.0,-100.00,SSE,155,1.0,7.0,87,0.00,,,0.16,0.000000,,2013-06-20 08:02:00,
2013-06-20 02:22:00,33.0,28.0,-100.00,South,190,1.0,6.0,82,0.00,,,0.16,0.000000,,2013-06-20 08:22:00,
2013-06-20 02:34:00,33.0,28.0,-100.00,South,190,1.0,6.0,82,0.00,,,0.16,0.000000,,2013-06-20 08:34:00,
2013-06-20 02:43:00,33.0,28.0,-100.00,South,190,1.0,6.0,82,0.00,,,0.16,0.000000,,2013-06-20 08:43:00,
2013-06-20 02:53:00,33.0,28.0,-100.00,South,190,1.0,6.0,82,0.00,,,0.16,0.000000,,2013-06-20 08:53:00,
2013-06-20 03:01:00,33.0,28.0,-100.00,South,190,1.0,6.0,82,0.00,,,0.16,0.000000,,2013-06-20 09:01:00,
2013-06-20 03:22:00,33.0,27.0,-100.00,SSW,207,2.0,8.0,79,0.00,,,0.16,0.000000,,2013-06-20 09:22:00,
2013-06-20 03:33:00,33.0,27.0,-100.00,SSW,207,2.0,8.0,79,0.00,,,0.16,0.000000,,2013-06-20 09:33:00,
2013-06-20 03:43:00,33.0,27.0,-100.00,SSW,207,2.0,8.0,79,0.00,,,0.16,0.000000,,2013-06-20 09:43:00,
2013-06-20 03:52:00,33.0,27.0,-100.00,SSW,207,2.0,8.0,79,0.00,,,0.16,0.000000,,2013-06-20 09:52:00,
2013-06-20 04:01:00,33.0,27.0,-100.00,SSW,207,2.0,8.0,79,0.00,,,0.16,0.000000,,2013-06-20 10:01:00,
2013-06-20 04:34:00,35.0,28.0,-100.00,ESE,118,1.0,11.0,74,0.00,,,0.16,0.000000,,2013-06-20 10:34:00,
2013-06-20 04:43:00,35.0,28.0,-100.00,ESE,118,1.0,11.0,74,0.00,,,0.16,0.000000,,2013-06-20 10:43:00,
2013-06-20 04:53:00,35.0,28.0,-100.00,ESE,118,1.0,11.0,74,0.00,,,0.16,0.000000,,2013-06-20 10:53:00,
2013-06-20 05:01:00,35.0,28.0,-100.00,ESE,118,1.0,11.0,74,0.00,,,0.16,0.000000,,2013-06-20 11:01:00,
2013-06-20 05:22:00,35.0,27.0,-100.00,East,96,2.0,10.0,71,0.00,,,0.16,0.000000,,2013-06-20 11:22:00,
2013-06-20 05:34:00,35.0,27.0,-100.00,East,96,2.0,10.0,71,0.00,,,0.16,0.000000,,2013-06-20 11:34:00,
2013-06-20 05:43:00,35.0,27.0,-100.00,East,96,2.0,10.0,71,0.00,,,0.16,0.000000,,2013-06-20 11:43:00,
2013-06-20 05:53:00,35.0,27.0,-100.00,East,96,2.0,10.0,71,0.00,,,0.16,0.000000,,2013-06-20 11:53:00,
2013-06-20 06:02:00,35.0,27.0,-100.00,East,96,2.0,10.0,71,0.00,,,0.16,0.000000,,2013-06-20 12:02:00,
2013-06-20 06:22:00,34.0,26.0,-100.00,SSW,206,2.0,8.0,72,0.00,,,0.16,1.000000,,2013-06-20 12:22:00,
2013-06-20 06:34:00,34.0,26.0,-100.00,SSW,206,2.0,8.0,72,0.00,,,0.16,1.000000,,2013-06-20 12:34:00,
2013-06-20 06:43:00,34.0,26.0,-100.00,SSW,206,2.0,8.0,72,0.00,,,0.16,1.000000,,2013-06-20 12:43:00,
2013-06-20 06:53:00,34.0,26.0,-100.00,SSW,206,2.0,8.0,72,0.00,,,0.16,1.000000,,2013-06-20 12:53:00,
2013-06-20 07:01:00,34.0,26.0,-100.00,SSW,206,2.0,8.0,72,0.00,,,0.16,1.000000,,2013-06-20 13:01:00,
2013-06-20 07:33:00,33.0,25.0,-100.00,SSW,211,2.0,7.0,73,0.00,,,0.16,14.000000,,2013-06-20 13:33:00,
2013-06-20 07:42:00,33.0,25.0,-100.00,SSW,211,2.0,7.0,73,0.00,,,0.16,14.000000,,2013-06-20 13:42:00,
2013-06-20 07:53:00,33.0,25.0,-100.00,SSW,211,2.0,7.0,73,0.00,,,0.16,14.000000,,2013-06-20 13:53:00,
2013-06-20 08:01:00,33.0,25.0,-100.00,SSW,211,2.0,7.0,73,0.00,,,0.16,14.000000,,2013-06-20 14:01:00,
2013-06-20 08:22:00,40.0,29.0,-100.00,SW,233,2.0,10.0,64,0.00,,,-99.99,161.000000,,2013-06-20 14:22:00,
2013-06-20 08:33:00,40.0,29.0,-100.00,SW,233,2.0,10.0,64,0.00,,,-99.99,161.000000,,2013-06-20 14:33:00,
2013-06-20 08:42:00,40.0,29.0,-100.00,SW,233,2.0,10.0,64,0.00,,,-99.99,161.000000,,2013-06-20 14:42:00,
2013-06-20 08:53:00,40.0,29.0,-100.00,SW,233,2.0,10.0,64,0.00,,,-99.99,161.000000,,2013-06-20 14:53:00,
2013-06-20 09:01:00,40.0,29.0,-100.00,SW,233,2.0,10.0,64,0.00,,,-99.99,161.000000,,2013-06-20 15:01:00,
2013-06-20 09:33:00,44.0,27.0,-100.00,SW,232,3.0,13.0,51,0.00,,,0.16,385.000000,,2013-06-20 15:33:00,
2013-06-20 09:43:00,44.0,27.0,-100.00,SW,232,3.0,13.0,51,0.00,,,0.16,385.000000,,2013-06-20 15:43:00,
2013-06-20 09:53:00,44.0,27.0,-100.00,SW,232,3.0,13.0,51,0.00,,,0.16,385.000000,,2013-06-20 15:53:00,
2013-06-20 10:01:00,44.0,27.0,-100.00,SW,232,3.0,13.0,51,0.00,,,0.16,385.000000,,2013-06-20 16:01:00,
2013-06-20 10:22:00,45.0,34.0,-100.00,West,272,1.0,16.0,66,0.00,,,0.16,181.000000,,2013-06-20 16:22:00,
2013-06-20 10:33:00,45.0,34.0,-100.00,West,272,1.0,16.0,66,0.00,,,0.16,181.000000,,2013-06-20 16:33:00,
2013-06-20 10:43:00,45.0,34.0,-100.00,West,272,1.0,16.0,66,0.00,,,0.16,181.000000,,2013-06-20 16:43:00,
2013-06-20 10:52:00,45.0,34.0,-100.00,West,272,1.0,16.0,66,0.00,,,0.16,181.000000,,2013-06-20 16:52:00,
2013-06-20 11:01:00,45.0,34.0,-100.00,West,272,1.0,16.0,66,0.00,,,0.16,181.000000,,2013-06-20 17:01:00,
2013-06-20 11:33:00,51.0,31.0,-100.00,NW,311,3.0,9.0,47,0.00,,,0.16,728.000000,,2013-06-20 17:33:00,
2013-06-20 11:43:00,51.0,31.0,-100.00,NW,311,3.0,9.0,47,0.00,,,0.16,728.000000,,2013-06-20 17:43:00,
2013-06-20 11:53:00,51.0,31.0,-100.00,NW,311,3.0,9.0,47,0.00,,,0.16,728.000000,,2013-06-20 17:53:00,
2013-06-20 12:01:00,51.0,31.0,-100.00,NW,311,3.0,9.0,47,0.00,,,0.16,728.000000,,2013-06-20 18:01:00,
2013-06-20 12:22:00,51.0,30.0,-100.00,SW,229,2.0,8.0,45,0.00,,,0.16,710.000000,,2013-06-20 18:22:00,
2013-06-20 12:33:00,51.0,30.0,-100.00,SW,229,2.0,8.0,45,0.00,,,0.16,710.000000,,2013-06-20 18:33:00,
2013-06-20 12:43:00,51.0,30.0,-100.00,SW,229,2.0,8.0,45,0.00,,,0.16,710.000000,,2013-06-20 18:43:00,
2013-06-20 12:53:00,51.0,30.0,-100.00,SW,229,2.0,8.0,45,0.00,,,0.16,710.000000,,2013-06-20 18:53:00,
2013-06-20 13:01:00,51.0,30.0,-100.00,SW,229,2.0,8.0,45,0.00,,,0.16,710.000000,,2013-06-20 19:01:00,
2013-06-20 13:34:00,55.0,34.0,-100.00,WSW,245,3.0,10.0,45,0.00,,,0.16,717.000000,,2013-06-20 19:34:00,
2013-06-20 13:43:00,55.0,34.0,-100.00,WSW,245,3.0,10.0,45,0.00,,,0.16,717.000000,,2013-06-20 19:43:00,
2013-06-20 13:52:00,55.0,34.0,-100.00,WSW,245,3.0,10.0,45,0.00,,,0.16,717.000000,,2013-06-20 19:52:00,
2013-06-20 14:01:00,55.0,34.0,-100.00,WSW,245,3.0,10.0,45,0.00,,,0.16,717.000000,,2013-06-20 20:01:00,
2013-06-20 14:33:00,57.0,33.0,-100.00,WSW,243,4.0,15.0,40,0.00,,,-99.99,751.000000,,2013-06-20 20:33:00,
2013-06-20 14:43:00,57.0,33.0,-100.00,WSW,243,4.0,15.0,40,0.00,,,-99.99,751.000000,,2013-06-20 20:43:00,
2013-06-20 14:52:00,57.0,33.0,-100.00,WSW,243,4.0,15.0,40,0.00,,,-99.99,751.000000,,2013-06-20 20:52:00,
2013-06-20 15:01:00,57.0,33.0,-100.00,WSW,243,4.0,15.0,40,0.00,,,-99.99,751.000000,,2013-06-20 21:01:00,